Time;durP1;ratioP1;P1;durP2;ratioP2;P2;SDS_P1;SDS_P2;PMS_P1;PMS_P2;Temp;Humidity;BMP_temperature;BMP_pressure;BME280_temperature;BME280_humidity;BME280_pressure;Samples;Min_cycle;Max_cycle;Signal;HPM_P1;HPM_P2
2021/08/17 00:00:48;;;;;;;;;;;;;;;18.45;95.05;97366.16;1730699;82;20137;-73
2021/08/17 00:03:13;;;;;;;;;;;;;;;18.46;92.69;97376.01;1730966;83;21070;-78
2021/08/17 00:05:41;;;;;;;;;;;;;;;18.51;91.71;97368.31;1730786;82;20181;-73
2021/08/17 00:08:07;;;;;;;;;;;;;;;18.55;90.74;97369.81;1710402;83;20462;-78
2021/08/17 00:10:32;;;;;;;;;;;;;;;18.56;93.95;97364.55;1730748;83;20146;-73
2021/08/17 00:12:58;;;;;;;;;;;;;;;18.60;92.00;97368.18;1730963;83;20234;-75
2021/08/17 00:15:24;;;;;;;;;;;;;;;18.64;91.07;97372.41;1730928;82;21033;-73
2021/08/17 00:17:50;;;;;;;;;;;;;;;18.58;90.67;97364.42;1730911;83;20209;-73
2021/08/17 00:20:16;;;;;;;;;;;;;;;18.57;90.68;97361.45;1730845;82;20241;-79
2021/08/17 00:22:42;;;;;;;;;;;;;;;18.59;89.90;97371.50;1730887;82;20160;-73
2021/08/17 00:25:08;;;;;;;;;;;;;;;18.60;90.45;97390.12;1731379;82;20166;-79
2021/08/17 00:27:34;;;;;;;;;;;;;;;18.49;90.04;97398.62;1734261;82;21924;-73
2021/08/17 00:30:00;;;;;;;;;;;;;;;18.41;88.74;97396.23;1732871;82;20303;-78
2021/08/17 00:32:26;;;;;;;;;;;;;;;18.08;88.24;97403.23;1733844;82;20225;-78
2021/08/17 00:34:52;;;;;;;;;;;;;;;17.95;87.86;97424.95;1732773;82;20202;-74
2021/08/17 00:37:24;;;;;;;;;;;;;;;17.85;87.65;97437.70;1744545;82;20147;-73
2021/08/17 00:39:51;;;;;;;;;;;;;;;17.62;87.67;97445.53;1749137;82;21847;-78
2021/08/17 00:42:17;;;;;;;;;;;;;;;17.56;87.08;97446.88;1749267;82;20217;-73
2021/08/17 00:44:43;;;;;;;;;;;;;;;17.44;87.12;97454.50;1741086;81;20265;-73
2021/08/17 00:47:08;;;;;;;;;;;;;;;17.35;86.97;97461.44;1739046;82;20152;-78
2021/08/17 00:49:35;;;;;;;;;;;;;;;17.30;87.00;97472.59;1738929;82;20150;-78
2021/08/17 00:52:06;;;;;;;;;;;;;;;17.27;87.10;97484.80;1739068;81;22047;-78
2021/08/17 00:54:31;;;;;;;;;;;;;;;17.22;87.26;97496.73;1738248;82;20158;-74
2021/08/17 00:56:57;;;;;;;;;;;;;;;17.14;87.24;97503.09;1739050;81;20221;-78
2021/08/17 00:59:23;;;;;;;;;;;;;;;17.07;87.19;97500.87;1738793;81;20134;-73
2021/08/17 01:01:52;;;;;;;;;;;;;;;17.08;87.19;97490.73;1739048;82;20142;-73
2021/08/17 01:04:17;;;;;;;;;;;;;;;17.05;87.20;97479.09;1738792;81;21025;-74
2021/08/17 01:06:43;;;;;;;;;;;;;;;17.03;88.51;97466.31;1739123;81;20702;-73
2021/08/17 01:09:09;;;;;;;;;;;;;;;17.05;88.23;97466.20;1738783;82;20162;-78
2021/08/17 01:11:38;;;;;;;;;;;;;;;17.05;87.69;97468.94;1739060;82;20150;-78
2021/08/17 01:14:04;;;;;;;;;;;;;;;16.98;87.93;97461.03;1738828;82;20144;-78
2021/08/17 01:16:30;;;;;;;;;;;;;;;16.88;91.72;97459.50;1739160;81;21749;-74
2021/08/17 01:18:55;;;;;;;;;;;;;;;16.87;88.86;97470.22;1738886;81;20221;-78
2021/08/17 01:21:21;;;;;;;;;;;;;;;16.82;88.51;97478.05;1738781;82;20229;-74
2021/08/17 01:23:47;;;;;;;;;;;;;;;16.83;91.28;97481.02;1738851;82;20212;-74
2021/08/17 01:26:13;;;;;;;;;;;;;;;16.87;92.95;97473.75;1738938;81;20257;-73
2021/08/17 01:28:38;;;;;;;;;;;;;;;16.93;90.39;97487.25;1738967;82;21130;-73
2021/08/17 01:31:05;;;;;;;;;;;;;;;16.87;89.67;97491.54;1738812;82;20193;-78
2021/08/17 01:33:31;;;;;;;;;;;;;;;16.90;89.55;97494.17;1738944;82;20176;-74
2021/08/17 01:35:57;;;;;;;;;;;;;;;16.94;89.02;97492.95;1738760;82;20679;-74
2021/08/17 01:38:23;;;;;;;;;;;;;;;16.90;90.09;97476.38;1748869;82;20268;-74
2021/08/17 01:40:50;;;;;;;;;;;;;;;16.88;92.02;97469.87;1749000;82;21159;-74
2021/08/17 01:43:16;;;;;;;;;;;;;;;16.85;90.99;97465.09;1744408;82;20091;-74
2021/08/17 01:45:43;;;;;;;;;;;;;;;16.91;89.97;97469.77;1738876;81;20183;-78
2021/08/17 01:48:12;;;;;;;;;;;;;;;16.96;89.48;97468.22;1738991;82;20610;-74
2021/08/17 01:50:38;;;;;;;;;;;;;;;16.98;88.70;97474.72;1738921;81;20148;-78
2021/08/17 01:53:04;;;;;;;;;;;;;;;16.90;89.29;97483.22;1739014;82;21202;-78
2021/08/17 01:55:30;;;;;;;;;;;;;;;16.92;88.84;97480.98;1738896;81;20230;-73
2021/08/17 01:57:57;;;;;;;;;;;;;;;16.88;88.81;97472.62;1739031;82;20198;-78
2021/08/17 02:00:23;;;;;;;;;;;;;;;16.91;89.57;97469.20;1738894;82;20694;-74
2021/08/17 02:02:49;;;;;;;;;;;;;;;16.98;93.03;97478.82;1738960;81;20234;-78
2021/08/17 02:05:20;;;;;;;;;;;;;;;16.96;93.67;97474.25;1738924;82;20746;-78
2021/08/17 02:07:42;;;;;;;;;;;;;;;16.91;92.64;97476.05;1738319;82;20143;-74
2021/08/17 02:10:09;;;;;;;;;;;;;;;16.88;90.74;97480.03;1739006;81;20177;-74
2021/08/17 02:12:35;;;;;;;;;;;;;;;16.88;90.39;97486.30;1717893;82;20143;-74
2021/08/17 02:15:01;;;;;;;;;;;;;;;16.88;90.63;97489.03;1739040;81;20195;-74
2021/08/17 02:17:27;;;;;;;;;;;;;;;16.92;92.00;97480.98;1739046;81;21107;-74
2021/08/17 02:19:52;;;;;;;;;;;;;;;16.93;92.43;97473.00;1739004;81;20249;-77
2021/08/17 02:22:18;;;;;;;;;;;;;;;16.88;89.64;97467.14;1739086;82;20174;-78
2021/08/17 02:24:44;;;;;;;;;;;;;;;16.83;89.50;97458.33;1738725;81;20153;-74
2021/08/17 02:27:09;;;;;;;;;;;;;;;16.80;89.73;97448.06;1739135;82;20186;-74
2021/08/17 02:29:35;;;;;;;;;;;;;;;16.79;89.50;97454.67;1738809;82;21137;-74
2021/08/17 02:32:01;;;;;;;;;;;;;;;16.77;89.83;97461.84;1739056;82;20348;-73
2021/08/17 02:34:27;;;;;;;;;;;;;;;16.78;90.08;97471.66;1738973;82;20181;-73
2021/08/17 02:36:52;;;;;;;;;;;;;;;16.82;89.78;97478.05;1741656;81;20153;-78
2021/08/17 02:39:18;;;;;;;;;;;;;;;16.80;89.45;97482.26;1749376;82;20142;-73
2021/08/17 02:41:44;;;;;;;;;;;;;;;16.83;89.24;97485.12;1739173;82;21846;-78
2021/08/17 02:44:10;;;;;;;;;;;;;;;16.77;89.26;97487.04;1738865;81;20319;-74
2021/08/17 02:46:36;;;;;;;;;;;;;;;16.76;89.06;97471.19;1738985;81;20670;-74
2021/08/17 02:49:01;;;;;;;;;;;;;;;16.75;91.26;97468.77;1738925;82;20771;-74
2021/08/17 02:51:27;;;;;;;;;;;;;;;16.76;89.86;97482.70;1738949;81;20170;-73
2021/08/17 02:53:53;;;;;;;;;;;;;;;16.75;89.16;97487.38;1738979;81;21133;-74
2021/08/17 02:56:19;;;;;;;;;;;;;;;16.78;89.06;97477.69;1738962;82;20244;-78
2021/08/17 02:58:45;;;;;;;;;;;;;;;16.74;89.48;97481.64;1738999;81;20228;-78
2021/08/17 03:01:11;;;;;;;;;;;;;;;16.67;89.44;97489.57;1738980;82;20148;-78
2021/08/17 03:03:36;;;;;;;;;;;;;;;16.68;89.34;97482.16;1739089;82;20419;-77
2021/08/17 03:06:02;;;;;;;;;;;;;;;16.73;89.48;97473.77;1739081;81;21161;-78
2021/08/17 03:08:28;;;;;;;;;;;;;;;16.77;88.91;97469.25;1738995;81;20205;-78
2021/08/17 03:10:54;;;;;;;;;;;;;;;16.79;90.07;97475.98;1739107;82;20185;-73
2021/08/17 03:13:19;;;;;;;;;;;;;;;16.77;89.18;97480.20;1739121;81;20177;-74
2021/08/17 03:15:46;;;;;;;;;;;;;;;16.71;90.98;97482.89;1739118;81;20170;-74
2021/08/17 03:18:12;;;;;;;;;;;;;;;16.64;91.40;97469.70;1739008;82;21128;-74
2021/08/17 03:20:38;;;;;;;;;;;;;;;16.67;90.14;97473.73;1739051;81;20221;-78
2021/08/17 03:23:04;;;;;;;;;;;;;;;16.61;89.97;97487.58;1738962;82;20446;-74
2021/08/17 03:25:30;;;;;;;;;;;;;;;16.58;90.92;97491.56;1739113;82;20451;-73
2021/08/17 03:27:56;;;;;;;;;;;;;;;16.56;89.60;97484.23;1739020;82;20217;-78
2021/08/17 03:30:22;;;;;;;;;;;;;;;16.53;90.11;97486.27;1739178;81;21032;-78
2021/08/17 03:32:48;;;;;;;;;;;;;;;16.56;89.52;97489.13;1738957;81;20143;-78
2021/08/17 03:35:14;;;;;;;;;;;;;;;16.67;89.17;97496.98;1739042;82;20209;-78
2021/08/17 03:37:40;;;;;;;;;;;;;;;16.67;89.54;97503.25;1743026;82;20213;-78
2021/08/17 03:40:07;;;;;;;;;;;;;;;16.67;91.87;97499.71;1747909;82;20545;-74
2021/08/17 03:42:33;;;;;;;;;;;;;;;16.71;91.27;97502.84;1749299;81;21033;-78
2021/08/17 03:44:59;;;;;;;;;;;;;;;16.79;89.95;97506.65;1739433;82;20228;-73
2021/08/17 03:47:25;;;;;;;;;;;;;;;16.85;89.60;97499.28;1739068;82;20249;-74
2021/08/17 03:49:50;;;;;;;;;;;;;;;16.86;88.87;97512.40;1739049;81;20169;-78
2021/08/17 03:52:16;;;;;;;;;;;;;;;16.81;88.70;97516.69;1739243;81;20678;-76
2021/08/17 03:54:42;;;;;;;;;;;;;;;16.82;88.61;97518.28;1738962;81;21900;-74
2021/08/17 03:57:08;;;;;;;;;;;;;;;16.79;88.76;97517.59;1738713;81;20209;-73
2021/08/17 03:59:33;;;;;;;;;;;;;;;16.69;90.09;97516.05;1738952;81;20205;-73
2021/08/17 04:01:59;;;;;;;;;;;;;;;16.67;90.62;97515.55;1738763;82;20143;-78
2021/08/17 04:04:25;;;;;;;;;;;;;;;16.66;90.54;97516.66;1738953;82;20206;-78
2021/08/17 04:06:51;;;;;;;;;;;;;;;16.63;89.76;97526.34;1738858;82;21145;-73
2021/08/17 04:09:16;;;;;;;;;;;;;;;16.64;89.36;97533.41;1738940;81;20730;-77
2021/08/17 04:11:42;;;;;;;;;;;;;;;16.71;89.38;97536.23;1738966;81;20257;-78
2021/08/17 04:14:08;;;;;;;;;;;;;;;16.79;89.29;97536.75;1738967;81;20150;-73
2021/08/17 04:16:34;;;;;;;;;;;;;;;16.84;89.59;97549.67;1718094;82;20233;-77
2021/08/17 04:18:59;;;;;;;;;;;;;;;16.88;89.20;97547.06;1738869;82;21068;-73
2021/08/17 04:21:25;;;;;;;;;;;;;;;16.93;88.82;97546.88;1738908;81;20173;-78
2021/08/17 04:23:51;;;;;;;;;;;;;;;16.98;88.62;97547.23;1738890;82;20273;-73
2021/08/17 04:26:17;;;;;;;;;;;;;;;16.94;88.09;97550.42;1739020;81;20120;-77
2021/08/17 04:28:43;;;;;;;;;;;;;;;16.93;87.86;97550.19;1738960;82;20170;-73
2021/08/17 04:31:09;;;;;;;;;;;;;;;16.75;87.94;97546.20;1739039;81;21065;-73
2021/08/17 04:33:34;;;;;;;;;;;;;;;16.60;90.66;97535.22;1738875;82;20166;-73
2021/08/17 04:36:00;;;;;;;;;;;;;;;16.57;90.20;97520.02;1738927;81;20264;-77
2021/08/17 04:38:26;;;;;;;;;;;;;;;16.53;92.94;97514.98;1744692;82;20249;-73
2021/08/17 04:40:52;;;;;;;;;;;;;;;16.51;92.68;97516.69;1748776;82;20169;-73
2021/08/17 04:43:17;;;;;;;;;;;;;;;16.51;91.88;97523.52;1749245;81;21252;-76
2021/08/17 04:45:43;;;;;;;;;;;;;;;16.48;91.98;97521.44;1749317;81;20177;-73
2021/08/17 04:48:09;;;;;;;;;;;;;;;16.48;90.70;97524.73;1740084;81;20186;-78
2021/08/17 04:50:34;;;;;;;;;;;;;;;16.45;92.57;97517.20;1739179;81;20209;-76
2021/08/17 04:53:00;;;;;;;;;;;;;;;16.47;91.51;97524.50;1739105;82;20233;-78
2021/08/17 04:55:26;;;;;;;;;;;;;;;16.50;90.96;97521.92;1738794;81;21872;-78
2021/08/17 04:57:56;;;;;;;;;;;;;;;16.59;91.23;97521.88;1738950;81;20177;-78
2021/08/17 05:00:24;;;;;;;;;;;;;;;16.68;90.64;97531.40;1739028;81;20176;-78
2021/08/17 05:02:49;;;;;;;;;;;;;;;16.78;89.96;97535.95;1739010;82;20655;-78
2021/08/17 05:05:15;;;;;;;;;;;;;;;16.87;89.98;97526.31;1739042;82;20296;-73
2021/08/17 05:07:41;;;;;;;;;;;;;;;16.94;89.62;97527.95;1738984;81;21662;-78
2021/08/17 05:10:13;;;;;;;;;;;;;;;16.99;89.32;97533.78;1738950;82;20290;-77
2021/08/17 05:12:39;;;;;;;;;;;;;;;17.01;89.04;97546.02;1739025;82;20139;-73
2021/08/17 05:15:05;;;;;;;;;;;;;;;17.02;88.84;97561.30;1739266;81;20214;-77
2021/08/17 05:17:31;;;;;;;;;;;;;;;17.03;88.61;97571.12;1738743;82;20311;-73
2021/08/17 05:19:57;;;;;;;;;;;;;;;17.03;88.24;97575.79;1739033;82;21059;-73
2021/08/17 05:22:23;;;;;;;;;;;;;;;17.01;88.35;97578.87;1738677;81;20185;-78
2021/08/17 05:24:48;;;;;;;;;;;;;;;16.99;87.76;97580.31;1739058;81;20260;-73
2021/08/17 05:27:14;;;;;;;;;;;;;;;16.95;87.85;97576.65;1738822;81;20146;-78
2021/08/17 05:29:40;;;;;;;;;;;;;;;16.86;89.44;97583.54;1738826;81;20150;-73
2021/08/17 05:32:06;;;;;;;;;;;;;;;16.84;88.36;97581.14;1738805;81;21081;-77
2021/08/17 05:34:32;;;;;;;;;;;;;;;16.88;88.12;97584.00;1738804;82;20179;-73
2021/08/17 05:36:58;;;;;;;;;;;;;;;16.87;89.42;97581.03;1738958;81;20178;-78
2021/08/17 05:39:23;;;;;;;;;;;;;;;16.89;89.49;97585.03;1747151;82;20158;-78
2021/08/17 05:41:49;;;;;;;;;;;;;;;16.95;88.83;97580.75;1747604;82;20170;-78
2021/08/17 05:44:15;;;;;;;;;;;;;;;16.93;91.08;97579.72;1744870;81;21090;-73
2021/08/17 05:46:41;;;;;;;;;;;;;;;16.82;91.26;97586.69;1738922;81;20181;-78
2021/08/17 05:49:06;;;;;;;;;;;;;;;16.65;91.25;97588.91;1738770;81;20237;-73
2021/08/17 05:51:32;;;;;;;;;;;;;;;16.59;92.05;97603.93;1738857;81;20154;-73
2021/08/17 05:53:58;;;;;;;;;;;;;;;16.55;92.25;97604.34;1738853;81;20245;-73
2021/08/17 05:56:24;;;;;;;;;;;;;;;16.34;90.27;97613.84;1739065;81;21120;-73
2021/08/17 05:58:49;;;;;;;;;;;;;;;16.03;88.41;97619.53;1738767;81;20244;-72
2021/08/17 06:01:15;;;;;;;;;;;;;;;15.70;88.57;97624.15;1739077;81;20198;-78
2021/08/17 06:03:41;;;;;;;;;;;;;;;15.49;89.46;97615.78;1738828;81;20178;-73
2021/08/17 06:06:07;;;;;;;;;;;;;;;15.33;89.91;97615.21;1739031;82;20162;-73
2021/08/17 06:08:32;;;;;;;;;;;;;;;15.25;90.78;97616.81;1739066;81;21916;-73
2021/08/17 06:10:58;;;;;;;;;;;;;;;15.23;90.50;97620.42;1738968;82;20730;-73
2021/08/17 06:13:25;;;;;;;;;;;;;;;15.16;91.08;97617.36;1739050;82;20240;-73
2021/08/17 06:15:51;;;;;;;;;;;;;;;15.22;90.89;97625.64;1739178;82;20136;-78
2021/08/17 06:18:17;;;;;;;;;;;;;;;15.21;90.92;97632.20;1739076;81;20694;-80
2021/08/17 06:20:43;;;;;;;;;;;;;;;15.16;90.35;97637.27;1739079;82;21071;-80
2021/08/17 06:23:09;;;;;;;;;;;;;;;15.13;90.47;97637.11;1738943;81;20234;-75
2021/08/17 06:25:34;;;;;;;;;;;;;;;15.08;91.12;97640.78;1739149;81;20225;-80
2021/08/17 06:28:01;;;;;;;;;;;;;;;14.84;89.57;97647.20;1739041;82;20815;-80
2021/08/17 06:30:27;;;;;;;;;;;;;;;14.58;88.58;97667.00;1739191;82;20179;-80
2021/08/17 06:32:54;;;;;;;;;;;;;;;14.34;87.64;97669.25;1738846;82;21129;-75
2021/08/17 06:35:19;;;;;;;;;;;;;;;14.38;88.75;97676.50;1739095;81;20124;-73
2021/08/17 06:37:45;;;;;;;;;;;;;;;14.21;87.61;97683.77;1738287;82;20249;-78
2021/08/17 06:40:11;;;;;;;;;;;;;;;14.04;87.48;97682.55;1736996;82;20233;-80
2021/08/17 06:42:37;;;;;;;;;;;;;;;13.91;88.12;97692.13;1731370;82;20168;-80
2021/08/17 06:45:04;;;;;;;;;;;;;;;13.90;88.45;97690.52;1730878;83;21865;-73
2021/08/17 06:47:30;;;;;;;;;;;;;;;13.87;88.97;97703.41;1730716;83;20203;-78
2021/08/17 06:49:56;;;;;;;;;;;;;;;13.87;89.02;97711.02;1731065;82;20182;-78
2021/08/17 06:52:21;;;;;;;;;;;;;;;13.88;88.78;97718.62;1730757;83;20182;-78
2021/08/17 06:54:47;;;;;;;;;;;;;;;13.88;88.74;97724.08;1731039;83;20182;-73
2021/08/17 06:57:13;;;;;;;;;;;;;;;13.85;88.64;97732.88;1730848;82;21040;-78
2021/08/17 06:59:39;;;;;;;;;;;;;;;13.86;87.33;97733.92;1730810;83;20194;-73
2021/08/17 07:02:04;;;;;;;;;;;;;;;13.96;88.04;97735.04;1730813;82;20194;-78
2021/08/17 07:04:30;;;;;;;;;;;;;;;13.99;86.97;97732.25;1730881;83;20139;-77
2021/08/17 07:06:56;;;;;;;;;;;;;;;14.03;87.10;97746.88;1730858;82;20162;-73
2021/08/17 07:09:22;;;;;;;;;;;;;;;14.07;86.10;97756.83;1730988;82;21054;-78
2021/08/17 07:11:47;;;;;;;;;;;;;;;14.14;85.84;97764.58;1730824;82;20162;-78
2021/08/17 07:14:13;;;;;;;;;;;;;;;14.23;86.55;97768.73;1730923;82;20173;-73
2021/08/17 07:16:39;;;;;;;;;;;;;;;14.30;86.36;97772.64;1730927;82;20143;-78
2021/08/17 07:19:05;;;;;;;;;;;;;;;14.33;86.10;97788.92;1730877;83;20151;-78
2021/08/17 07:21:30;;;;;;;;;;;;;;;14.33;85.66;97793.81;1730998;82;21093;-78
2021/08/17 07:23:57;;;;;;;;;;;;;;;14.33;85.36;97802.55;1730831;82;20202;-73
2021/08/17 07:26:23;;;;;;;;;;;;;;;14.32;85.34;97809.92;1731012;82;20139;-78
2021/08/17 07:28:48;;;;;;;;;;;;;;;14.33;85.14;97800.63;1730940;83;20201;-73
2021/08/17 07:31:14;;;;;;;;;;;;;;;14.28;84.47;97808.95;1731049;82;20142;-78
2021/08/17 07:33:40;;;;;;;;;;;;;;;14.28;84.46;97803.50;1730937;82;21150;-73
2021/08/17 07:36:06;;;;;;;;;;;;;;;14.24;84.59;97799.77;1731025;83;20193;-78
2021/08/17 07:38:31;;;;;;;;;;;;;;;14.21;84.49;97799.03;1737900;82;20781;-78
2021/08/17 07:40:57;;;;;;;;;;;;;;;14.14;84.50;97806.02;1740097;82;20210;-78
2021/08/17 07:43:23;;;;;;;;;;;;;;;14.04;84.16;97809.78;1738880;82;20277;-73
2021/08/17 07:45:49;;;;;;;;;;;;;;;13.82;84.20;97826.30;1739245;82;21133;-73
2021/08/17 07:48:14;;;;;;;;;;;;;;;13.67;83.78;97845.70;1738928;81;20173;-75
2021/08/17 07:50:40;;;;;;;;;;;;;;;13.33;83.78;97842.03;1739286;81;20189;-78
2021/08/17 07:53:09;;;;;;;;;;;;;;;12.97;84.06;97857.59;1738864;82;20158;-73
2021/08/17 07:55:34;;;;;;;;;;;;;;;12.77;84.39;97853.07;1739208;81;20147;-73
2021/08/17 07:58:00;;;;;;;;;;;;;;;12.66;84.42;97866.84;1738817;81;21085;-77
2021/08/17 08:00:26;;;;;;;;;;;;;;;12.43;85.41;97872.63;1739237;81;20158;-78
2021/08/17 08:02:52;;;;;;;;;;;;;;;12.49;85.33;97873.36;1738871;82;20178;-73
2021/08/17 08:05:18;;;;;;;;;;;;;;;12.37;86.30;97882.50;1739084;82;20174;-73
2021/08/17 08:07:44;;;;;;;;;;;;;;;12.31;86.29;97882.34;1738901;81;20174;-74
2021/08/17 08:10:10;;;;;;;;;;;;;;;12.33;86.39;97886.36;1739179;81;21085;-73
2021/08/17 08:12:36;;;;;;;;;;;;;;;12.37;87.21;97890.65;1738839;81;20268;-76
2021/08/17 08:15:02;;;;;;;;;;;;;;;12.32;87.63;97894.81;1739192;82;20233;-74
2021/08/17 08:17:27;;;;;;;;;;;;;;;12.36;86.97;97901.27;1694415;82;20170;-78
2021/08/17 08:19:53;;;;;;;;;;;;;;;12.36;87.33;97904.78;1739121;81;20281;-77
2021/08/17 08:22:19;;;;;;;;;;;;;;;12.35;86.68;97909.97;1738981;81;21047;-73
2021/08/17 08:24:44;;;;;;;;;;;;;;;12.42;85.67;97916.40;1738751;82;20193;-74
2021/08/17 08:27:11;;;;;;;;;;;;;;;12.58;85.19;97921.06;1739027;81;20181;-77
2021/08/17 08:29:37;;;;;;;;;;;;;;;12.59;83.75;97922.13;1738796;81;20123;-73
2021/08/17 08:32:03;;;;;;;;;;;;;;;12.73;84.22;97921.36;1739024;82;20233;-74
2021/08/17 08:34:29;;;;;;;;;;;;;;;12.75;82.71;97919.17;1738813;82;21133;-76
2021/08/17 08:36:55;;;;;;;;;;;;;;;12.91;83.92;97907.76;1739008;81;20185;-77
2021/08/17 08:39:21;;;;;;;;;;;;;;;13.01;85.05;97918.22;1737883;82;20161;-77
2021/08/17 08:41:47;;;;;;;;;;;;;;;13.14;84.36;97929.67;1731010;82;20143;-77
2021/08/17 08:44:13;;;;;;;;;;;;;;;13.31;84.03;97932.66;1730858;82;20164;-78
2021/08/17 08:46:39;;;;;;;;;;;;;;;13.37;83.44;97934.20;1730937;83;21137;-74
2021/08/17 08:49:05;;;;;;;;;;;;;;;13.47;83.66;97938.09;1730599;83;20136;-77
2021/08/17 08:51:31;;;;;;;;;;;;;;;13.57;83.26;97942.53;1730941;83;20241;-77
2021/08/17 08:53:57;;;;;;;;;;;;;;;13.67;82.83;97944.25;1710321;82;20205;-73
2021/08/17 08:56:28;;;;;;;;;;;;;;;13.74;82.63;97946.83;1710322;83;20151;-73
2021/08/17 08:58:53;;;;;;;;;;;;;;;13.78;81.35;97946.50;1730769;83;21935;-77
2021/08/17 09:01:20;;;;;;;;;;;;;;;13.89;82.00;97953.10;1730827;83;20296;-73
2021/08/17 09:03:48;;;;;;;;;;;;;;;13.91;82.17;97950.87;1730701;83;20160;-74
2021/08/17 09:06:18;;;;;;;;;;;;;;;13.91;81.50;97948.95;1730554;82;20169;-77
2021/08/17 09:08:44;;;;;;;;;;;;;;;13.91;82.26;97953.05;1730898;82;20128;-77
2021/08/17 09:11:15;;;;;;;;;;;;;;;13.96;82.87;97956.23;1730939;83;21215;-77
2021/08/17 09:13:40;;;;;;;;;;;;;;;14.06;82.44;97958.19;1730704;83;20325;-77
2021/08/17 09:16:26;;;;;;;;;;;;;;;14.15;81.79;97952.03;1731099;82;20257;-78
2021/08/17 09:18:52;;;;;;;;;;;;;;;14.10;81.26;97957.85;1730845;82;20184;-77
2021/08/17 09:21:38;;;;;;;;;;;;;;;14.13;80.62;97961.08;1730927;83;20145;-74
2021/08/17 09:24:16;;;;;;;;;;;;;;;14.14;80.46;97961.32;1730883;83;20996;-74
2021/08/17 09:26:47;;;;;;;;;;;;;;;14.16;81.06;97966.71;1727243;83;20140;-78
2021/08/17 09:29:25;;;;;;;;;;;;;;;14.32;80.15;97969.38;1730449;83;20152;-74
2021/08/17 09:31:52;;;;;;;;;;;;;;;14.53;80.05;97981.25;1730891;83;20157;-74
2021/08/17 09:34:19;;;;;;;;;;;;;;;14.59;79.20;97984.90;1730919;82;20156;-74
2021/08/17 09:36:45;;;;;;;;;;;;;;;14.63;80.10;97986.47;1710325;83;21137;-77
2021/08/17 09:39:13;;;;;;;;;;;;;;;14.78;79.71;97977.92;1730648;82;20164;-74
2021/08/17 09:41:39;;;;;;;;;;;;;;;14.97;78.90;97970.96;1729842;82;20412;-74
2021/08/17 09:44:09;;;;;;;;;;;;;;;15.11;78.83;97977.70;1730953;83;20461;-74
2021/08/17 09:46:39;;;;;;;;;;;;;;;15.15;78.08;97971.89;1731155;83;20157;-78
2021/08/17 09:49:30;;;;;;;;;;;;;;;15.22;77.91;97975.80;1710883;82;22065;-78
2021/08/17 09:51:57;;;;;;;;;;;;;;;15.29;77.66;97967.72;1730598;82;20137;-77
2021/08/17 09:54:24;;;;;;;;;;;;;;;15.48;77.59;97969.14;1730709;83;20431;-74
2021/08/17 09:57:02;;;;;;;;;;;;;;;15.43;74.44;97967.89;1731060;82;20672;-74
2021/08/17 09:59:29;;;;;;;;;;;;;;;15.29;75.26;97981.36;1731102;82;20104;-78
2021/08/17 10:01:55;;;;;;;;;;;;;;;15.42;75.06;97979.94;1731073;82;21029;-78
2021/08/17 10:04:25;;;;;;;;;;;;;;;15.41;74.67;97984.35;1730888;82;20577;-74
2021/08/17 10:06:54;;;;;;;;;;;;;;;15.54;75.65;97976.63;1729466;83;20136;-74
2021/08/17 10:09:20;;;;;;;;;;;;;;;15.59;75.47;97983.33;1731191;82;20128;-74
2021/08/17 10:11:45;;;;;;;;;;;;;;;15.60;74.64;97980.84;1730601;83;20658;-74
2021/08/17 10:14:15;;;;;;;;;;;;;;;15.60;73.35;97986.86;1730860;82;21988;-78
2021/08/17 10:16:41;;;;;;;;;;;;;;;15.59;73.77;97987.98;1730795;83;20136;-78
2021/08/17 10:19:08;;;;;;;;;;;;;;;15.72;74.98;97994.77;1730859;82;20152;-74
2021/08/17 10:21:33;;;;;;;;;;;;;;;15.74;74.23;97984.89;1731250;82;20164;-74
2021/08/17 10:23:59;;;;;;;;;;;;;;;15.80;73.90;97987.15;1730827;83;20139;-74
2021/08/17 10:26:33;;;;;;;;;;;;;;;15.82;74.21;97988.23;1731119;82;21081;-78
2021/08/17 10:28:59;;;;;;;;;;;;;;;15.94;74.29;97993.09;1730823;82;20148;-77
2021/08/17 10:31:31;;;;;;;;;;;;;;;16.05;74.60;97984.28;1731015;83;20257;-78
2021/08/17 10:34:09;;;;;;;;;;;;;;;16.13;74.49;97988.73;1730844;82;20132;-74
2021/08/17 10:36:36;;;;;;;;;;;;;;;16.21;74.27;97985.23;1731195;82;20163;-74
2021/08/17 10:39:08;;;;;;;;;;;;;;;16.25;73.09;97979.38;1710928;83;21117;-74
2021/08/17 10:41:36;;;;;;;;;;;;;;;16.26;73.80;97977.70;1722284;83;20155;-74
2021/08/17 10:44:05;;;;;;;;;;;;;;;16.37;74.01;97993.23;1735441;82;20446;-77
2021/08/17 10:46:48;;;;;;;;;;;;;;;16.31;72.87;97980.83;1739032;81;20132;-78
2021/08/17 10:49:25;;;;;;;;;;;;;;;16.23;72.03;97980.23;1726108;82;20160;-74
2021/08/17 10:51:52;;;;;;;;;;;;;;;16.23;73.17;97978.88;1739115;81;21334;-74
2021/08/17 10:54:18;;;;;;;;;;;;;;;16.35;73.54;97973.62;1739033;82;20132;-74
2021/08/17 10:56:47;;;;;;;;;;;;;;;16.69;73.02;97984.41;1739266;81;20210;-74
2021/08/17 10:59:12;;;;;;;;;;;;;;;17.09;72.35;97988.61;1744338;82;20632;-74
2021/08/17 11:01:39;;;;;;;;;;;;;;;17.53;69.82;97992.10;1739190;81;20194;-74
2021/08/17 11:04:12;;;;;;;;;;;;;;;17.88;70.37;97985.98;1738760;82;20994;-74
2021/08/17 11:06:39;;;;;;;;;;;;;;;18.17;67.88;97983.84;1736472;82;20156;-78
2021/08/17 11:09:07;;;;;;;;;;;;;;;18.26;65.62;97979.11;1738922;82;20144;-78
2021/08/17 11:11:32;;;;;;;;;;;;;;;18.30;63.90;97966.36;1739137;81;20083;-74
2021/08/17 11:14:09;;;;;;;;;;;;;;;18.24;64.66;97964.13;1738864;82;20198;-74
2021/08/17 11:16:40;;;;;;;;;;;;;;;18.19;66.56;97964.30;1739137;81;21055;-75
2021/08/17 11:19:06;;;;;;;;;;;;;;;18.41;65.88;97961.28;1738877;81;20136;-74
2021/08/17 11:21:33;;;;;;;;;;;;;;;18.32;66.09;97969.56;1739257;82;20197;-78
2021/08/17 11:24:11;;;;;;;;;;;;;;;18.59;66.20;97972.38;1738904;82;20148;-74
2021/08/17 11:26:37;;;;;;;;;;;;;;;18.87;64.05;97974.06;1738888;82;20135;-78
2021/08/17 11:29:03;;;;;;;;;;;;;;;18.92;64.62;97977.76;1738805;82;20993;-77
2021/08/17 11:31:29;;;;;;;;;;;;;;;19.09;62.77;97983.91;1739129;82;20171;-75
2021/08/17 11:34:15;;;;;;;;;;;;;;;19.05;62.01;97981.58;1738939;82;20217;-74
2021/08/17 11:36:42;;;;;;;;;;;;;;;19.06;61.53;97975.55;1738277;82;20765;-78
2021/08/17 11:39:17;;;;;;;;;;;;;;;18.77;62.88;97975.03;1718415;82;20147;-78
2021/08/17 11:41:43;;;;;;;;;;;;;;;19.07;62.62;97981.27;1736778;82;21250;-74
2021/08/17 11:44:11;;;;;;;;;;;;;;;19.39;59.02;97968.67;1738808;81;20225;-74
2021/08/17 11:46:37;;;;;;;;;;;;;;;18.95;59.70;97965.52;1738781;82;20144;-78
2021/08/17 11:49:22;;;;;;;;;;;;;;;18.82;59.98;97952.89;1718165;82;21831;-75
2021/08/17 11:52:03;;;;;;;;;;;;;;;18.68;60.97;97960.58;1739133;81;20136;-78
2021/08/17 11:54:31;;;;;;;;;;;;;;;18.73;60.69;97961.19;1738913;81;21759;-74
2021/08/17 11:56:58;;;;;;;;;;;;;;;18.43;61.24;97957.63;1739030;81;20168;-75
2021/08/17 11:59:24;;;;;;;;;;;;;;;18.47;61.14;97966.83;1738926;82;20164;-75
2021/08/17 12:01:59;;;;;;;;;;;;;;;18.44;61.60;97973.53;1739113;81;20135;-78
2021/08/17 12:04:25;;;;;;;;;;;;;;;18.66;60.23;97970.52;1738926;82;20156;-78
2021/08/17 12:07:10;;;;;;;;;;;;;;;18.48;60.62;97968.42;1739054;82;21078;-78
2021/08/17 12:09:39;;;;;;;;;;;;;;;18.38;61.30;97976.24;1738852;82;20139;-78
2021/08/17 12:12:06;;;;;;;;;;;;;;;18.23;60.97;97981.72;1738844;81;20129;-78
2021/08/17 12:14:32;;;;;;;;;;;;;;;18.09;59.46;97982.50;1718200;82;20175;-74
2021/08/17 12:16:58;;;;;;;;;;;;;;;18.28;61.40;97980.95;1739232;81;20185;-78
2021/08/17 12:19:24;;;;;;;;;;;;;;;18.37;61.86;97981.47;1738904;81;20969;-78
2021/08/17 12:21:50;;;;;;;;;;;;;;;18.42;61.86;97979.34;1739020;82;20154;-78
2021/08/17 12:24:21;;;;;;;;;;;;;;;18.50;60.92;97985.36;1738892;81;20193;-75
2021/08/17 12:27:03;;;;;;;;;;;;;;;18.84;60.56;97988.47;1739138;82;20156;-78
2021/08/17 12:29:40;;;;;;;;;;;;;;;19.19;59.49;97992.88;1738940;82;20149;-74
2021/08/17 12:32:28;;;;;;;;;;;;;;;19.21;59.03;97987.27;1738695;82;21825;-75
2021/08/17 12:34:56;;;;;;;;;;;;;;;19.16;57.30;97983.38;1738942;82;20132;-74
2021/08/17 12:37:26;;;;;;;;;;;;;;;19.20;57.13;97973.30;1738386;82;20163;-78
2021/08/17 12:39:53;;;;;;;;;;;;;;;19.28;56.08;97975.17;1742630;82;20713;-75
2021/08/17 12:42:19;;;;;;;;;;;;;;;19.54;58.17;97980.98;1748914;82;20417;-75
2021/08/17 12:44:45;;;;;;;;;;;;;;;19.93;57.74;97981.00;1738758;81;20505;-74
2021/08/17 12:47:12;;;;;;;;;;;;;;;19.98;58.26;97982.13;1738989;81;20201;-75